Time;durP1;ratioP1;P1;durP2;ratioP2;P2;SDS_P1;SDS_P2;PMS_P1;PMS_P2;Temp;Humidity;BMP_temperature;BMP_pressure;BME280_temperature;BME280_humidity;BME280_pressure;Samples;Min_cycle;Max_cycle;Signal;HPM_P1;HPM_P2
2023/11/24 00:00:03;;;;;;;6.32;3.20;;;7.50;99.90;;;;;;4939420;29;20540;-73
2023/11/24 00:02:29;;;;;;;7.38;3.60;;;7.50;99.90;;;;;;4938823;29;20023;-73
2023/11/24 00:04:55;;;;;;;4.70;2.90;;;7.50;99.90;;;;;;4939335;29;20040;-72
2023/11/24 00:07:21;;;;;;;6.18;3.58;;;7.50;99.90;;;;;;4955900;29;20039;-72
2023/11/24 00:09:46;;;;;;;6.28;3.47;;;7.50;99.90;;;;;;4939349;29;20495;-73
2023/11/24 00:12:12;;;;;;;8.25;3.78;;;7.50;99.90;;;;;;4956446;29;20027;-73
2023/11/24 00:14:38;;;;;;;5.15;2.90;;;7.50;99.90;;;;;;4956451;29;20380;-72
2023/11/24 00:17:04;;;;;;;5.80;3.30;;;7.50;99.90;;;;;;4941896;29;20126;-73
2023/11/24 00:19:30;;;;;;;6.75;3.15;;;7.50;99.90;;;;;;4953895;29;20449;-72
2023/11/24 00:21:56;;;;;;;5.53;3.75;;;7.50;99.90;;;;;;4946895;29;20138;-73
2023/11/24 00:24:23;;;;;;;5.55;3.20;;;7.50;99.90;;;;;;4934921;29;20122;-73
2023/11/24 00:26:49;;;;;;;6.22;3.30;;;7.50;99.90;;;;;;4936831;29;20038;-73
2023/11/24 00:29:15;;;;;;;7.07;3.50;;;7.50;99.90;;;;;;4920686;29;20478;-74
2023/11/24 00:31:41;;;;;;;5.90;3.63;;;7.60;99.90;;;;;;4936520;29;20389;-73
2023/11/24 00:34:07;;;;;;;6.45;3.28;;;7.60;99.90;;;;;;4926594;29;20028;-73
2023/11/24 00:36:34;;;;;;;5.63;3.47;;;7.60;99.90;;;;;;4934397;29;20046;-73
2023/11/24 00:38:59;;;;;;;6.07;3.40;;;7.60;99.90;;;;;;4919679;29;20035;-73
2023/11/24 00:41:27;;;;;;;4.68;2.92;;;7.60;99.90;;;;;;4919170;29;20502;-72
2023/11/24 00:43:54;;;;;;;6.20;3.45;;;7.60;99.90;;;;;;4936335;29;20019;-73
2023/11/24 00:46:21;;;;;;;5.85;3.30;;;7.60;99.90;;;;;;4918496;29;20050;-73
2023/11/24 00:48:47;;;;;;;6.45;3.35;;;7.60;99.90;;;;;;4918882;29;20027;-73
2023/11/24 00:51:14;;;;;;;5.10;3.10;;;7.70;99.90;;;;;;4936020;29;20036;-80
2023/11/24 00:53:40;;;;;;;5.05;3.10;;;7.70;99.90;;;;;;4918808;29;20051;-73
2023/11/24 00:56:07;;;;;;;5.60;2.72;;;7.70;99.90;;;;;;4936490;29;20039;-73
2023/11/24 00:58:32;;;;;;;6.10;3.03;;;7.70;99.90;;;;;;4926021;29;20743;-73
2023/11/24 01:01:02;;;;;;;6.28;3.58;;;7.80;99.90;;;;;;4919005;29;20083;-73
2023/11/24 01:03:27;;;;;;;4.97;2.90;;;7.80;99.90;;;;;;4935607;29;20103;-73
2023/11/24 01:05:53;;;;;;;6.60;3.03;;;7.80;99.90;;;;;;4918634;29;20118;-74
2023/11/24 01:08:20;;;;;;;4.78;3.00;;;7.90;99.90;;;;;;4917846;29;20024;-73
2023/11/24 01:10:46;;;;;;;5.07;2.80;;;7.90;99.90;;;;;;4935754;29;20039;-74
2023/11/24 01:13:12;;;;;;;5.53;2.58;;;7.90;99.90;;;;;;4936017;29;20043;-73
2023/11/24 01:15:38;;;;;;;5.88;2.47;;;7.90;99.90;;;;;;4918942;29;20024;-73
2023/11/24 01:18:06;;;;;;;4.05;2.60;;;7.90;99.90;;;;;;4918986;29;20027;-73
2023/11/24 01:20:33;;;;;;;4.88;2.92;;;7.90;99.90;;;;;;4935356;29;20321;-75
2023/11/24 01:23:00;;;;;;;5.82;2.90;;;8.00;99.90;;;;;;4950133;29;20078;-74
2023/11/24 01:25:25;;;;;;;5.38;2.70;;;8.00;99.90;;;;;;4954207;28;20123;-73
2023/11/24 01:27:51;;;;;;;6.10;2.83;;;8.00;99.90;;;;;;4953370;29;20110;-74
2023/11/24 01:30:16;;;;;;;4.85;2.85;;;8.00;99.90;;;;;;4952874;29;20027;-73
2023/11/24 01:32:42;;;;;;;6.85;2.78;;;8.10;99.90;;;;;;4953739;29;20023;-74
2023/11/24 01:35:09;;;;;;;5.05;2.50;;;8.10;99.90;;;;;;4953542;29;20479;-74
2023/11/24 01:37:35;;;;;;;4.13;2.40;;;8.10;99.90;;;;;;4954472;28;20023;-74
2023/11/24 01:40:00;;;;;;;4.78;2.63;;;8.10;99.90;;;;;;4953501;29;20030;-73
2023/11/24 01:42:26;;;;;;;4.93;2.13;;;8.10;99.90;;;;;;4954487;28;20031;-73
2023/11/24 01:44:51;;;;;;;4.97;2.45;;;8.10;99.90;;;;;;4954630;29;20094;-73
2023/11/24 01:47:17;;;;;;;4.38;2.33;;;8.20;99.90;;;;;;4952933;29;20098;-73
2023/11/24 01:49:45;;;;;;;4.60;2.25;;;8.20;99.90;;;;;;4953869;29;20376;-73
2023/11/24 01:52:12;;;;;;;5.93;2.38;;;8.20;99.90;;;;;;4953773;29;20427;-73
2023/11/24 01:54:38;;;;;;;3.28;2.10;;;8.20;99.90;;;;;;4954587;28;20085;-73
2023/11/24 01:57:07;;;;;;;7.13;3.03;;;8.20;99.90;;;;;;4954943;29;20118;-73
2023/11/24 01:59:35;;;;;;;3.63;2.35;;;8.20;99.90;;;;;;4953280;29;20365;-73
2023/11/24 02:02:00;;;;;;;4.70;2.38;;;8.20;99.90;;;;;;4953833;29;20082;-73
2023/11/24 02:04:26;;;;;;;5.22;2.10;;;8.20;99.90;;;;;;4953214;28;20035;-73
2023/11/24 02:06:53;;;;;;;4.38;2.45;;;8.20;99.90;;;;;;4955116;29;20460;-73
2023/11/24 02:09:18;;;;;;;3.25;2.15;;;8.20;99.90;;;;;;4953152;29;20038;-73
2023/11/24 02:11:44;;;;;;;4.45;2.30;;;8.20;99.90;;;;;;4954861;28;20094;-73
2023/11/24 02:14:10;;;;;;;3.75;2.20;;;8.20;99.90;;;;;;4954824;29;20023;-73
2023/11/24 02:16:36;;;;;;;5.35;2.83;;;8.20;99.90;;;;;;4953016;29;20468;-73
2023/11/24 02:19:01;;;;;;;4.40;2.00;;;8.20;99.90;;;;;;4953513;29;20037;-73
2023/11/24 02:21:27;;;;;;;3.05;1.83;;;8.20;99.90;;;;;;4952625;29;20408;-73
2023/11/24 02:23:53;;;;;;;4.15;2.00;;;8.20;99.90;;;;;;4954719;28;20457;-73
2023/11/24 02:26:19;;;;;;;3.30;2.00;;;8.20;99.90;;;;;;4954172;29;20038;-73
2023/11/24 02:28:44;;;;;;;3.53;2.20;;;8.20;99.90;;;;;;4954692;28;20023;-73
2023/11/24 02:31:11;;;;;;;4.97;2.20;;;8.20;99.90;;;;;;4954677;29;20031;-73
2023/11/24 02:33:40;;;;;;;2.88;1.70;;;8.30;99.90;;;;;;4952669;29;20104;-73
2023/11/24 02:36:08;;;;;;;3.03;1.88;;;8.30;99.90;;;;;;4953294;29;20042;-73
2023/11/24 02:38:34;;;;;;;3.72;2.22;;;8.20;99.90;;;;;;4954178;28;20019;-73
2023/11/24 02:41:00;;;;;;;3.25;1.80;;;8.30;99.90;;;;;;4953299;29;20028;-73
2023/11/24 02:43:27;;;;;;;3.15;1.80;;;8.20;99.90;;;;;;4954333;28;20028;-73
2023/11/24 02:45:53;;;;;;;2.90;1.88;;;8.20;99.90;;;;;;4953289;29;20038;-73
2023/11/24 02:48:18;;;;;;;3.35;1.90;;;8.20;99.90;;;;;;4954072;29;20031;-74
2023/11/24 02:50:44;;;;;;;4.10;2.00;;;8.20;99.90;;;;;;4953136;29;20122;-73
2023/11/24 02:53:09;;;;;;;5.60;2.05;;;8.30;99.90;;;;;;4953281;29;20031;-73
2023/11/24 02:55:35;;;;;;;2.50;1.77;;;8.20;99.90;;;;;;4952690;29;20425;-73
2023/11/24 02:58:01;;;;;;;2.53;1.70;;;8.20;99.90;;;;;;4953203;29;20031;-73
2023/11/24 03:00:27;;;;;;;3.70;2.05;;;8.20;99.90;;;;;;4952709;29;20024;-73
2023/11/24 03:02:52;;;;;;;3.35;1.88;;;8.10;99.90;;;;;;4952890;29;20027;-73
2023/11/24 03:05:19;;;;;;;3.40;1.90;;;8.10;99.90;;;;;;4954132;29;20027;-77
2023/11/24 03:07:44;;;;;;;2.50;1.58;;;8.10;99.90;;;;;;4954360;28;20027;-73
2023/11/24 03:10:11;;;;;;;4.22;2.05;;;8.10;99.90;;;;;;4953994;29;20392;-73
2023/11/24 03:12:37;;;;;;;2.70;2.00;;;8.10;99.90;;;;;;4952689;29;20028;-73
2023/11/24 03:15:03;;;;;;;3.28;2.30;;;8.00;99.90;;;;;;4953074;29;20030;-73
2023/11/24 03:17:30;;;;;;;2.33;1.88;;;8.00;99.90;;;;;;4956076;28;20047;-73
2023/11/24 03:19:55;;;;;;;3.95;2.30;;;7.90;99.90;;;;;;4957889;28;20166;-73
2023/11/24 03:22:21;;;;;;;3.78;2.25;;;7.90;99.90;;;;;;4955692;29;20102;-74
2023/11/24 03:24:47;;;;;;;3.50;2.15;;;7.90;99.90;;;;;;4957761;29;20035;-73
2023/11/24 03:27:12;;;;;;;4.70;2.30;;;7.90;99.90;;;;;;4956499;29;20383;-73
2023/11/24 03:29:39;;;;;;;4.07;2.08;;;7.80;99.90;;;;;;4956034;29;20388;-73
2023/11/24 03:32:05;;;;;;;3.55;2.13;;;7.80;99.90;;;;;;4956565;29;20110;-73
2023/11/24 03:34:32;;;;;;;2.95;1.90;;;7.80;99.90;;;;;;4955955;29;20552;-73
2023/11/24 03:36:57;;;;;;;3.25;2.15;;;7.80;99.90;;;;;;4955957;29;20067;-73
2023/11/24 03:39:23;;;;;;;3.75;2.10;;;7.80;99.90;;;;;;4955708;29;20057;-73
2023/11/24 03:41:48;;;;;;;3.00;1.85;;;7.80;99.90;;;;;;4956152;29;20028;-73
2023/11/24 03:44:14;;;;;;;3.75;2.08;;;7.80;99.90;;;;;;4956111;29;20035;-73
2023/11/24 03:46:40;;;;;;;2.72;1.98;;;7.80;99.90;;;;;;4956587;29;20177;-73
2023/11/24 03:49:10;;;;;;;3.78;2.13;;;7.80;99.90;;;;;;4957267;29;20031;-72
2023/11/24 03:51:36;;;;;;;3.90;2.17;;;7.80;99.90;;;;;;4955747;29;20118;-72
2023/11/24 03:54:02;;;;;;;3.03;2.20;;;7.90;99.90;;;;;;4957276;28;20067;-73
2023/11/24 03:56:27;;;;;;;3.53;2.42;;;7.90;99.90;;;;;;4955465;29;20130;-73
2023/11/24 03:58:53;;;;;;;3.30;2.03;;;7.80;99.90;;;;;;4956912;29;20376;-73
2023/11/24 04:01:19;;;;;;;5.00;2.25;;;7.90;99.90;;;;;;4957080;28;20050;-73
2023/11/24 04:03:48;;;;;;;2.85;2.25;;;7.90;99.90;;;;;;4955399;29;20063;-73
2023/11/24 04:06:14;;;;;;;3.85;1.88;;;7.90;99.90;;;;;;4957019;28;20035;-73
2023/11/24 04:08:40;;;;;;;3.22;2.00;;;7.90;99.90;;;;;;4955325;29;20027;-73
2023/11/24 04:11:06;;;;;;;2.92;2.15;;;7.90;99.90;;;;;;4956718;28;20027;-73
2023/11/24 04:13:32;;;;;;;3.70;2.08;;;7.90;99.90;;;;;;4955197;29;20070;-73
2023/11/24 04:15:58;;;;;;;4.03;2.00;;;7.90;99.90;;;;;;4955767;29;20035;-73
2023/11/24 04:18:24;;;;;;;3.92;2.30;;;7.90;99.90;;;;;;4955069;29;20045;-74
2023/11/24 04:20:50;;;;;;;4.07;2.10;;;7.90;99.90;;;;;;4956300;28;20087;-73
2023/11/24 04:23:17;;;;;;;3.50;2.28;;;7.90;99.90;;;;;;4920281;29;20059;-73
2023/11/24 04:25:43;;;;;;;3.33;2.00;;;7.90;99.90;;;;;;4920015;29;20277;-73
2023/11/24 04:28:10;;;;;;;4.00;2.00;;;7.90;99.90;;;;;;4936381;29;20031;-73
2023/11/24 04:30:37;;;;;;;3.75;2.40;;;7.90;99.90;;;;;;4936937;29;20159;-73
2023/11/24 04:33:03;;;;;;;3.47;2.50;;;7.90;99.90;;;;;;4937406;29;20035;-73
2023/11/24 04:35:28;;;;;;;2.90;1.90;;;8.00;99.90;;;;;;4919772;29;20032;-73
2023/11/24 04:37:54;;;;;;;3.22;1.92;;;8.00;99.90;;;;;;4920187;29;20152;-73
2023/11/24 04:40:19;;;;;;;3.35;2.15;;;8.00;99.90;;;;;;4920231;29;20036;-73
2023/11/24 04:42:45;;;;;;;2.78;1.80;;;8.00;99.90;;;;;;4936682;29;20031;-73
2023/11/24 04:45:11;;;;;;;4.60;2.20;;;8.00;99.90;;;;;;4920180;29;20039;-73
2023/11/24 04:47:38;;;;;;;4.05;2.38;;;8.00;99.90;;;;;;4919584;29;20035;-73
2023/11/24 04:50:06;;;;;;;2.78;1.80;;;8.00;99.90;;;;;;4919861;29;20055;-73
2023/11/24 04:52:32;;;;;;;3.63;2.17;;;8.00;99.90;;;;;;4919571;29;20506;-72
2023/11/24 04:54:57;;;;;;;5.55;2.28;;;8.00;99.90;;;;;;4937042;29;20098;-73
2023/11/24 04:57:23;;;;;;;4.28;1.70;;;8.00;99.90;;;;;;4919788;29;20032;-73
2023/11/24 04:59:49;;;;;;;3.33;2.15;;;8.10;99.90;;;;;;4936430;29;20112;-72
2023/11/24 05:02:14;;;;;;;4.30;2.08;;;8.10;99.90;;;;;;4919797;29;20031;-72
2023/11/24 05:04:40;;;;;;;2.97;2.00;;;8.10;99.90;;;;;;4936345;29;20031;-73
2023/11/24 05:07:06;;;;;;;2.08;1.30;;;8.20;99.90;;;;;;4936788;29;20043;-73
2023/11/24 05:09:31;;;;;;;2.30;1.45;;;8.20;99.90;;;;;;4919172;29;20486;-73
2023/11/24 05:11:57;;;;;;;3.10;1.25;;;8.20;99.90;;;;;;4919607;29;20042;-73
2023/11/24 05:14:23;;;;;;;1.70;1.10;;;8.20;99.90;;;;;;4936554;29;20049;-72
2023/11/24 05:16:49;;;;;;;3.22;0.82;;;8.20;99.90;;;;;;4919012;29;20516;-73
2023/11/24 05:19:15;;;;;;;1.58;0.90;;;8.20;99.90;;;;;;4919427;29;20174;-73
2023/11/24 05:21:40;;;;;;;1.38;0.63;;;8.20;99.90;;;;;;4929436;29;20487;-73
2023/11/24 05:24:06;;;;;;;3.00;0.80;;;8.30;99.90;;;;;;4954369;29;20482;-73
2023/11/24 05:26:32;;;;;;;3.47;0.70;;;8.30;99.90;;;;;;4953887;29;20035;-73
2023/11/24 05:28:59;;;;;;;2.25;0.70;;;8.30;99.90;;;;;;4970548;28;20082;-73
2023/11/24 05:31:25;;;;;;;1.15;0.55;;;8.30;99.90;;;;;;4954294;29;20034;-73
2023/11/24 05:33:51;;;;;;;2.35;0.85;;;8.30;99.90;;;;;;4954973;29;20027;-73
2023/11/24 05:36:18;;;;;;;4.07;1.00;;;8.30;99.90;;;;;;4970282;28;20042;-73
2023/11/24 05:38:45;;;;;;;2.13;0.70;;;8.40;99.90;;;;;;4954559;28;20364;-73
2023/11/24 05:41:10;;;;;;;3.85;0.80;;;8.50;99.90;;;;;;4953869;29;20031;-73
2023/11/24 05:43:36;;;;;;;1.50;0.60;;;8.50;99.90;;;;;;4953581;29;20383;-73
2023/11/24 05:46:03;;;;;;;0.75;0.50;;;8.50;99.90;;;;;;4954218;29;20041;-73
2023/11/24 05:48:28;;;;;;;1.15;0.40;;;8.60;99.90;;;;;;4953621;29;20023;-74
2023/11/24 05:50:56;;;;;;;2.47;0.50;;;8.60;99.90;;;;;;4969945;28;20054;-73
2023/11/24 05:53:21;;;;;;;1.65;0.50;;;8.60;99.90;;;;;;4953994;29;20105;-73
2023/11/24 05:55:47;;;;;;;1.85;0.55;;;8.50;99.90;;;;;;4953314;29;20631;-73
2023/11/24 05:58:13;;;;;;;2.40;0.60;;;8.50;99.90;;;;;;4955067;29;20109;-73
2023/11/24 06:00:38;;;;;;;2.58;0.75;;;8.50;99.90;;;;;;4953361;29;20019;-73
2023/11/24 06:03:04;;;;;;;1.77;0.80;;;8.50;99.90;;;;;;4953722;29;20031;-73
2023/11/24 06:05:30;;;;;;;0.98;0.50;;;8.60;99.90;;;;;;4954589;29;20031;-74
2023/11/24 06:07:57;;;;;;;1.75;0.60;;;8.60;99.90;;;;;;4970022;28;20078;-74
2023/11/24 06:10:24;;;;;;;2.33;0.63;;;8.60;99.90;;;;;;4953634;29;20471;-73
2023/11/24 06:12:49;;;;;;;1.75;0.88;;;8.60;99.90;;;;;;4953235;29;20035;-72
2023/11/24 06:15:15;;;;;;;1.17;0.40;;;8.60;99.90;;;;;;4953620;29;20539;-73
2023/11/24 06:17:41;;;;;;;1.08;0.40;;;8.60;99.90;;;;;;4953153;29;20098;-73
2023/11/24 06:20:07;;;;;;;0.82;0.40;;;8.60;99.90;;;;;;4954771;28;20036;-73
2023/11/24 06:22:33;;;;;;;1.85;0.60;;;8.60;99.90;;;;;;4952682;29;20055;-73
2023/11/24 06:24:58;;;;;;;1.42;0.52;;;8.60;99.90;;;;;;4953730;29;20086;-73
2023/11/24 06:27:24;;;;;;;1.08;0.75;;;8.60;99.90;;;;;;4954777;29;20031;-72
2023/11/24 06:29:50;;;;;;;2.03;0.70;;;8.60;99.90;;;;;;4954262;29;20035;-73
2023/11/24 06:32:16;;;;;;;0.68;0.60;;;8.60;99.90;;;;;;4953483;29;20122;-73
2023/11/24 06:34:41;;;;;;;1.63;1.00;;;8.60;99.90;;;;;;4954237;29;20102;-73
2023/11/24 06:37:07;;;;;;;1.40;1.20;;;8.60;99.90;;;;;;4953373;29;20031;-73
2023/11/24 06:39:33;;;;;;;1.55;1.05;;;8.50;99.90;;;;;;4953009;29;20027;-73
2023/11/24 06:41:59;;;;;;;1.80;1.08;;;8.50;99.90;;;;;;4953410;29;20023;-73
2023/11/24 06:44:26;;;;;;;1.35;1.02;;;8.50;99.90;;;;;;4954606;28;20031;-73
2023/11/24 06:46:51;;;;;;;5.30;1.75;;;8.50;99.90;;;;;;4952961;29;20043;-73
2023/11/24 06:49:17;;;;;;;4.13;1.10;;;8.50;99.90;;;;;;4969348;28;20038;-73
2023/11/24 06:51:46;;;;;;;1.88;0.80;;;8.50;99.90;;;;;;4969988;28;20040;-73
2023/11/24 06:54:13;;;;;;;2.25;1.02;;;8.40;99.90;;;;;;4958482;28;20031;-73
2023/11/24 06:56:39;;;;;;;8.10;1.50;;;8.50;99.90;;;;;;4956587;29;20035;-73
2023/11/24 06:59:05;;;;;;;6.55;1.30;;;8.50;99.90;;;;;;4958510;29;20035;-72
2023/11/24 07:01:32;;;;;;;9.60;1.10;;;8.50;99.90;;;;;;4957025;29;20028;-73
2023/11/24 07:04:01;;;;;;;5.60;1.00;;;8.50;99.90;;;;;;4957039;29;20027;-73
2023/11/24 07:06:27;;;;;;;1.85;0.80;;;8.50;99.90;;;;;;4958104;29;20472;-73
2023/11/24 07:08:52;;;;;;;1.25;0.60;;;8.50;99.90;;;;;;4956420;29;20027;-73
2023/11/24 07:11:19;;;;;;;1.10;0.65;;;8.50;99.90;;;;;;4957993;29;20031;-73
2023/11/24 07:13:45;;;;;;;2.88;0.57;;;8.50;99.90;;;;;;4956294;29;20376;-73
2023/11/24 07:16:10;;;;;;;2.10;0.57;;;8.50;99.90;;;;;;4956646;29;20071;-73
2023/11/24 07:18:36;;;;;;;2.42;0.60;;;8.40;99.90;;;;;;4972330;28;20027;-73
2023/11/24 07:21:02;;;;;;;3.58;0.88;;;8.40;99.90;;;;;;4954332;29;20031;-73
2023/11/24 07:23:28;;;;;;;2.58;0.68;;;8.40;99.90;;;;;;4921794;29;20078;-73
2023/11/24 07:25:53;;;;;;;1.55;0.80;;;8.50;99.90;;;;;;4938240;29;20172;-73
2023/11/24 07:28:19;;;;;;;4.72;0.98;;;8.40;99.90;;;;;;4921429;29;20028;-73
2023/11/24 07:30:46;;;;;;;7.95;1.00;;;8.50;99.90;;;;;;4921100;29;20032;-73
2023/11/24 07:33:12;;;;;;;2.42;0.60;;;8.50;99.90;;;;;;4921439;29;20031;-73
2023/11/24 07:35:38;;;;;;;3.05;0.60;;;8.50;99.90;;;;;;4938179;29;20028;-73
2023/11/24 07:38:04;;;;;;;3.88;0.77;;;8.50;99.90;;;;;;4921237;29;20036;-73
2023/11/24 07:40:30;;;;;;;2.78;0.80;;;8.60;99.90;;;;;;4938760;29;20105;-73
2023/11/24 07:42:56;;;;;;;5.38;1.10;;;8.60;99.90;;;;;;4920786;29;20120;-73
2023/11/24 07:45:21;;;;;;;5.53;0.82;;;8.70;99.90;;;;;;4938554;29;20115;-73
2023/11/24 07:47:47;;;;;;;3.38;1.00;;;8.70;99.90;;;;;;4937788;29;20079;-73
2023/11/24 07:50:13;;;;;;;2.33;1.08;;;8.80;99.90;;;;;;4920960;29;20038;-73
2023/11/24 07:52:38;;;;;;;4.00;1.10;;;8.70;99.90;;;;;;4920643;29;20104;-73
2023/11/24 07:55:05;;;;;;;6.45;1.10;;;8.70;99.90;;;;;;4938087;29;20027;-73
2023/11/24 07:57:31;;;;;;;4.97;1.23;;;8.80;99.90;;;;;;4920883;29;20035;-73
2023/11/24 07:59:58;;;;;;;3.45;1.17;;;8.70;99.90;;;;;;4920529;29;20118;-73
2023/11/24 08:02:25;;;;;;;10.15;1.58;;;8.70;99.90;;;;;;4920822;29;20034;-73
2023/11/24 08:04:50;;;;;;;5.28;1.20;;;8.70;99.90;;;;;;4920425;29;20023;-72
2023/11/24 08:07:19;;;;;;;5.32;1.17;;;8.70;99.90;;;;;;4937752;29;20042;-73
2023/11/24 08:09:45;;;;;;;5.75;1.15;;;8.70;99.90;;;;;;4920419;29;20127;-73
2023/11/24 08:12:11;;;;;;;7.75;1.50;;;8.70;99.90;;;;;;4920893;29;20460;-73
2023/11/24 08:14:37;;;;;;;6.00;0.98;;;8.70;99.90;;;;;;4937302;29;20047;-74
2023/11/24 08:17:04;;;;;;;2.92;0.90;;;8.70;99.90;;;;;;4920559;29;20032;-72
2023/11/24 08:19:29;;;;;;;4.85;0.93;;;8.80;99.90;;;;;;4920601;29;20027;-72
2023/11/24 08:21:55;;;;;;;8.50;1.20;;;8.80;99.90;;;;;;4934206;29;20399;-73
2023/11/24 08:24:21;;;;;;;5.43;1.15;;;8.80;99.90;;;;;;4955557;29;20032;-73
2023/11/24 08:26:47;;;;;;;9.43;1.83;;;8.80;99.90;;;;;;4956275;28;20035;-73
2023/11/24 08:29:13;;;;;;;13.38;1.88;;;8.80;99.90;;;;;;4971600;28;20034;-72
2023/11/24 08:31:44;;;;;;;3.58;1.15;;;8.80;99.90;;;;;;4970845;28;20030;-73
2023/11/24 08:34:10;;;;;;;4.30;1.30;;;8.90;99.90;;;;;;4955621;29;20122;-73
2023/11/24 08:36:35;;;;;;;7.05;1.38;;;8.80;99.90;;;;;;4956392;29;20170;-73
2023/11/24 08:39:03;;;;;;;4.13;1.75;;;8.80;99.90;;;;;;4970740;28;20027;-73
2023/11/24 08:41:29;;;;;;;5.40;1.38;;;8.80;99.90;;;;;;4956161;28;20027;-73
2023/11/24 08:43:55;;;;;;;9.60;1.50;;;8.80;99.90;;;;;;4955815;28;20028;-73
2023/11/24 08:46:20;;;;;;;9.20;1.15;;;8.80;99.90;;;;;;4956213;29;20043;-73
2023/11/24 08:48:46;;;;;;;14.98;1.95;;;8.80;99.90;;;;;;4954262;29;20031;-73
2023/11/24 08:51:12;;;;;;;6.13;1.30;;;8.90;99.90;;;;;;4954937;29;20073;-73
2023/11/24 08:53:39;;;;;;;9.63;1.42;;;8.90;99.90;;;;;;4956120;29;20027;-73
2023/11/24 08:56:05;;;;;;;4.97;1.50;;;8.90;99.90;;;;;;4954751;29;20031;-73
2023/11/24 08:58:31;;;;;;;7.93;1.33;;;8.90;99.90;;;;;;4954874;29;20023;-73
2023/11/24 09:00:57;;;;;;;5.68;1.20;;;8.90;99.90;;;;;;4954070;29;20535;-73
2023/11/24 09:03:25;;;;;;;6.18;1.80;;;8.90;99.90;;;;;;4955937;28;20035;-73
2023/11/24 09:05:52;;;;;;;6.50;1.13;;;8.80;99.90;;;;;;4954076;29;20032;-73
2023/11/24 09:08:18;;;;;;;7.47;1.20;;;8.80;99.90;;;;;;4954657;29;20038;-73
2023/11/24 09:10:43;;;;;;;4.82;1.15;;;8.80;99.90;;;;;;4983801;28;20027;-73
2023/11/24 09:13:13;;;;;;;6.18;1.33;;;8.90;99.90;;;;;;4955756;28;20036;-73
2023/11/24 09:15:42;;;;;;;7.95;1.40;;;8.90;99.90;;;;;;4953698;28;20479;-73
2023/11/24 09:18:07;;;;;;;4.47;1.25;;;9.00;99.90;;;;;;4954068;29;20493;-74
2023/11/24 09:20:33;;;;;;;8.77;1.35;;;9.00;99.90;;;;;;4953591;29;20027;-73
2023/11/24 09:22:59;;;;;;;6.30;1.13;;;9.00;99.90;;;;;;4953846;29;20095;-73
2023/11/24 09:25:24;;;;;;;6.13;1.10;;;9.00;99.90;;;;;;4953773;29;20027;-73
2023/11/24 09:27:50;;;;;;;3.55;1.50;;;9.00;99.90;;;;;;4953347;29;20085;-73
2023/11/24 09:30:16;;;;;;;9.55;1.23;;;9.00;99.90;;;;;;4955065;28;20105;-73
2023/11/24 09:32:43;;;;;;;7.18;1.25;;;9.00;99.90;;;;;;4953261;29;20027;-74
2023/11/24 09:35:09;;;;;;;5.10;1.20;;;9.10;99.90;;;;;;4953643;29;20030;-73
2023/11/24 09:37:35;;;;;;;5.45;1.75;;;9.00;99.90;;;;;;4954895;29;20043;-73
2023/11/24 09:40:02;;;;;;;7.22;1.55;;;9.00;99.90;;;;;;4953056;29;20745;-76
2023/11/24 09:42:32;;;;;;;7.80;1.17;;;9.00;99.90;;;;;;4953611;29;20023;-73
2023/11/24 09:45:03;;;;;;;5.65;1.45;;;9.00;99.90;;;;;;4952525;29;20038;-73
2023/11/24 09:47:30;;;;;;;2.90;1.20;;;9.00;99.90;;;;;;4953755;29;20035;-73
2023/11/24 09:49:59;;;;;;;8.63;2.13;;;9.00;99.90;;;;;;4953019;29;20078;-73
2023/11/24 09:52:27;;;;;;;12.05;1.83;;;9.00;99.90;;;;;;4954786;28;20024;-74
2023/11/24 09:55:00;;;;;;;8.95;1.70;;;9.00;99.90;;;;;;4950396;29;20063;-73
2023/11/24 09:57:26;;;;;;;4.45;1.42;;;9.00;99.90;;;;;;4953813;29;20429;-73
2023/11/24 09:59:51;;;;;;;8.82;1.83;;;9.00;99.90;;;;;;4953408;29;20039;-74
2023/11/24 10:02:22;;;;;;;10.68;1.63;;;9.10;99.90;;;;;;4954794;28;20483;-74
2023/11/24 10:04:47;;;;;;;5.38;1.67;;;9.00;99.90;;;;;;4954674;28;20019;-73
2023/11/24 10:07:21;;;;;;;6.68;1.67;;;9.00;99.90;;;;;;4950522;28;20039;-73
2023/11/24 10:09:50;;;;;;;7.68;1.73;;;9.10;99.90;;;;;;4951584;29;20031;-73
2023/11/24 10:12:16;;;;;;;7.68;1.40;;;9.00;99.90;;;;;;4952713;28;20031;-72
2023/11/24 10:14:46;;;;;;;5.78;1.50;;;9.00;99.90;;;;;;4954433;28;20035;-73
2023/11/24 10:17:13;;;;;;;8.55;1.40;;;9.10;99.90;;;;;;4952776;29;20035;-72
2023/11/24 10:19:38;;;;;;;4.95;1.10;;;9.10;99.90;;;;;;4952812;29;20042;-72
2023/11/24 10:22:04;;;;;;;9.35;1.45;;;9.10;99.90;;;;;;4952082;29;20052;-73
2023/11/24 10:24:39;;;;;;;4.63;1.20;;;9.20;99.90;;;;;;4953176;29;20392;-73
2023/11/24 10:27:21;;;;;;;6.22;1.33;;;9.20;99.90;;;;;;4952620;28;20035;-73
2023/11/24 10:29:51;;;;;;;6.45;1.80;;;9.20;99.90;;;;;;4952519;29;20031;-73
2023/11/24 10:32:18;;;;;;;9.27;1.60;;;9.20;99.90;;;;;;4952984;29;20424;-73
2023/11/24 10:34:46;;;;;;;4.75;1.38;;;9.20;99.90;;;;;;4953878;28;20027;-79
2023/11/24 10:37:15;;;;;;;6.90;1.48;;;9.30;99.90;;;;;;4952194;29;20035;-73
2023/11/24 10:39:45;;;;;;;8.35;1.50;;;9.30;99.90;;;;;;4954561;28;20031;-73
2023/11/24 10:42:15;;;;;;;13.85;1.83;;;9.30;99.90;;;;;;4954115;28;20074;-73
2023/11/24 10:44:42;;;;;;;4.07;1.00;;;9.30;99.90;;;;;;4954499;29;20050;-73
2023/11/24 10:47:09;;;;;;;4.55;1.00;;;9.30;99.90;;;;;;4953430;28;20030;-74
2023/11/24 10:49:41;;;;;;;3.85;1.02;;;9.30;99.90;;;;;;4953963;28;20059;-73
2023/11/24 10:52:18;;;;;;;4.85;1.10;;;9.30;99.90;;;;;;4952236;29;20429;-73
2023/11/24 10:54:59;;;;;;;9.05;0.90;;;9.20;99.90;;;;;;4953823;28;20434;-78
2023/11/24 10:57:26;;;;;;;4.40;0.90;;;9.30;99.90;;;;;;4952882;29;20086;-73
2023/11/24 10:59:52;;;;;;;7.03;1.10;;;9.30;99.90;;;;;;4952326;29;20027;-73
2023/11/24 11:02:18;;;;;;;4.50;1.27;;;9.30;99.90;;;;;;4952735;29;20023;-73
2023/11/24 11:05:00;;;;;;;8.57;1.00;;;9.20;99.90;;;;;;4953775;28;20031;-73
2023/11/24 11:07:55;;;;;;;4.25;0.82;;;9.20;99.90;;;;;;4953548;28;20039;-73
2023/11/24 11:10:25;;;;;;;5.20;1.00;;;9.20;99.90;;;;;;4953082;29;20070;-73
2023/11/24 11:12:53;;;;;;;4.35;0.80;;;9.20;99.90;;;;;;4953645;28;20114;-74
2023/11/24 11:15:24;;;;;;;6.82;1.15;;;9.20;99.90;;;;;;4952704;29;20440;-74
2023/11/24 11:18:16;;;;;;;3.78;0.90;;;9.20;99.90;;;;;;4953397;28;20027;-74
2023/11/24 11:20:42;;;;;;;;;;;9.20;99.90;;;;;;4940199;29;20089;-73
2023/11/24 11:23:22;;;;;;;5.53;1.25;;;9.10;99.90;;;;;;4934472;28;19927;-74
2023/11/24 11:25:51;;;;;;;8.18;1.65;;;9.10;99.90;;;;;;4933933;29;20052;-73
2023/11/24 11:28:20;;;;;;;5.15;1.33;;;9.10;99.90;;;;;;4931891;29;20027;-73
2023/11/24 11:30:57;;;;;;;6.13;0.90;;;9.00;99.90;;;;;;4929447;29;20119;-74
2023/11/24 11:33:24;;;;;;;4.50;1.38;;;9.00;99.90;;;;;;4917491;29;20541;-73
2023/11/24 11:35:58;;;;;;;5.82;1.00;;;9.00;99.90;;;;;;4917106;29;20449;-74
2023/11/24 11:38:43;;;;;;;7.03;1.17;;;9.00;99.90;;;;;;4915540;29;20050;-73
2023/11/24 11:41:09;;;;;;;6.03;1.20;;;9.00;99.90;;;;;;4920572;29;20051;-73
2023/11/24 11:44:15;;;;;;;7.93;1.30;;;9.00;99.90;;;;;;4920785;29;20451;-72
2023/11/24 11:47:04;;;;;;;4.40;0.98;;;8.90;99.90;;;;;;4908156;29;20469;-73
2023/11/24 11:49:32;;;;;;;4.88;1.30;;;8.90;99.90;;;;;;4920093;29;20457;-76
2023/11/24 11:52:06;;;;;;;8.38;1.73;;;8.90;99.90;;;;;;4919457;29;20031;-74
2023/11/24 11:54:33;;;;;;;5.47;1.30;;;8.80;99.90;;;;;;4935132;29;20028;-75
2023/11/24 11:56:59;;;;;;;5.72;1.20;;;8.70;99.90;;;;;;4919474;29;20135;-74
2023/11/24 11:59:25;;;;;;;8.45;0.95;;;8.70;99.90;;;;;;4920004;29;20110;-74
2023/11/24 12:01:51;;;;;;;4.40;1.20;;;8.50;99.90;;;;;;4936682;29;20064;-74
2023/11/24 12:04:17;;;;;;;7.07;1.00;;;8.40;99.90;;;;;;4936928;29;20074;-74
2023/11/24 12:06:43;;;;;;;5.53;1.23;;;8.40;99.90;;;;;;4919580;29;20470;-74
2023/11/24 12:09:10;;;;;;;3.80;0.80;;;8.40;99.90;;;;;;4919275;29;20111;-74
2023/11/24 12:11:37;;;;;;;3.03;0.70;;;8.30;99.90;;;;;;4920228;29;20083;-73
2023/11/24 12:14:02;;;;;;;1.83;0.60;;;8.20;99.90;;;;;;4936446;29;20389;-74
2023/11/24 12:16:33;;;;;;;3.30;0.63;;;8.10;99.90;;;;;;4921257;29;20035;-73
2023/11/24 12:19:04;;;;;;;15.48;1.42;;;8.10;99.90;;;;;;4936064;29;20031;-73
2023/11/24 12:21:30;;;;;;;4.43;0.80;;;8.10;99.90;;;;;;4924058;29;20056;-73
2023/11/24 12:23:56;;;;;;;2.95;0.80;;;8.20;99.90;;;;;;4922088;29;20036;-73
2023/11/24 12:26:22;;;;;;;5.20;0.88;;;8.30;99.90;;;;;;4919483;29;20051;-73
2023/11/24 12:28:48;;;;;;;5.15;0.90;;;8.20;99.90;;;;;;4919899;29;20031;-74
2023/11/24 12:31:13;;;;;;;3.72;0.75;;;8.10;99.90;;;;;;4932305;29;20397;-74
2023/11/24 12:33:50;;;;;;;4.65;0.90;;;8.10;99.90;;;;;;4936476;29;20028;-74
2023/11/24 12:36:18;;;;;;;5.90;1.27;;;8.00;99.90;;;;;;4926652;29;20023;-74
2023/11/24 12:38:43;;;;;;;11.20;1.50;;;8.00;99.90;;;;;;4925875;29;20384;-75
2023/11/24 12:41:10;;;;;;;3.88;1.00;;;8.00;99.90;;;;;;4918670;29;20042;-74
2023/11/24 12:43:37;;;;;;;2.22;0.73;;;8.00;99.90;;;;;;4919318;29;20024;-73
2023/11/24 12:46:03;;;;;;;8.18;1.02;;;8.00;99.90;;;;;;4933904;29;20051;-74
2023/11/24 12:48:34;;;;;;;3.50;0.93;;;8.00;99.90;;;;;;4936317;29;20122;-73
2023/11/24 12:51:00;;;;;;;4.38;1.00;;;8.00;99.90;;;;;;4921760;29;20032;-74
2023/11/24 12:53:26;;;;;;;6.93;0.90;;;8.10;99.90;;;;;;4926284;29;20473;-74
2023/11/24 12:55:52;;;;;;;2.60;1.08;;;8.10;99.90;;;;;;4915272;29;20052;-74